sensor_id;sensor_type;location;lat;lon;timestamp;pressure;altitude;pressure_sealevel;temperature;humidity
13414;BME280;6778;48.136;11.386;2023-02-11T00:00:54;97203.22;;;-0.97;78.31
13414;BME280;6778;48.136;11.386;2023-02-11T00:03:25;97199.22;;;-1.01;78.63
13414;BME280;6778;48.136;11.386;2023-02-11T00:05:58;97200.09;;;-1.02;78.73
13414;BME280;6778;48.136;11.386;2023-02-11T00:08:31;97200.69;;;-1.12;79.07
13414;BME280;6778;48.136;11.386;2023-02-11T00:11:01;97199.78;;;-1.11;78.96
13414;BME280;6778;48.136;11.386;2023-02-11T00:13:31;97198.94;;;-1.11;78.88
13414;BME280;6778;48.136;11.386;2023-02-11T00:16:05;97192.84;;;-1.23;79.43
13414;BME280;6778;48.136;11.386;2023-02-11T00:18:35;97192.66;;;-1.20;79.52
13414;BME280;6778;48.136;11.386;2023-02-11T00:21:07;97204.31;;;-1.14;79.50
13414;BME280;6778;48.136;11.386;2023-02-11T00:23:40;97195.94;;;-1.18;79.48
13414;BME280;6778;48.136;11.386;2023-02-11T00:26:13;97200.47;;;-1.21;79.81
13414;BME280;6778;48.136;11.386;2023-02-11T00:28:45;97196.34;;;-1.24;80.02
13414;BME280;6778;48.136;11.386;2023-02-11T00:31:16;97195.72;;;-1.27;80.19
13414;BME280;6778;48.136;11.386;2023-02-11T00:33:48;97193.16;;;-1.27;80.25
13414;BME280;6778;48.136;11.386;2023-02-11T00:36:20;97186.88;;;-1.23;79.96
13414;BME280;6778;48.136;11.386;2023-02-11T00:38:54;97180.72;;;-1.21;79.76
13414;BME280;6778;48.136;11.386;2023-02-11T00:41:25;97184.03;;;-1.19;79.64
13414;BME280;6778;48.136;11.386;2023-02-11T00:43:58;97179.09;;;-1.22;79.69
13414;BME280;6778;48.136;11.386;2023-02-11T00:46:28;97181.72;;;-1.23;79.66
13414;BME280;6778;48.136;11.386;2023-02-11T00:48:58;97181.84;;;-1.25;79.80
13414;BME280;6778;48.136;11.386;2023-02-11T00:51:28;97171.75;;;-1.28;79.79
13414;BME280;6778;48.136;11.386;2023-02-11T00:54:01;97174.13;;;-1.25;79.99
13414;BME280;6778;48.136;11.386;2023-02-11T00:56:31;97173.50;;;-1.28;80.16
13414;BME280;6778;48.136;11.386;2023-02-11T00:59:01;97170.94;;;-1.28;80.13
13414;BME280;6778;48.136;11.386;2023-02-11T01:01:31;97175.16;;;-1.27;80.07
13414;BME280;6778;48.136;11.386;2023-02-11T01:04:01;97170.28;;;-1.32;80.48
13414;BME280;6778;48.136;11.386;2023-02-11T01:06:32;97172.97;;;-1.33;80.83
13414;BME280;6778;48.136;11.386;2023-02-11T01:09:06;97175.53;;;-1.33;80.78
13414;BME280;6778;48.136;11.386;2023-02-11T01:11:36;97166.09;;;-1.33;80.92
13414;BME280;6778;48.136;11.386;2023-02-11T01:14:06;97167.81;;;-1.33;80.99
13414;BME280;6778;48.136;11.386;2023-02-11T01:16:36;97179.31;;;-1.39;81.43
13414;BME280;6778;48.136;11.386;2023-02-11T01:19:06;97174.44;;;-1.44;81.69
13414;BME280;6778;48.136;11.386;2023-02-11T01:21:36;97177.84;;;-1.43;81.88
13414;BME280;6778;48.136;11.386;2023-02-11T01:24:08;97174.44;;;-1.44;82.03
13414;BME280;6778;48.136;11.386;2023-02-11T01:26:39;97177.78;;;-1.42;82.12
13414;BME280;6778;48.136;11.386;2023-02-11T01:29:08;97168.09;;;-1.38;81.72
13414;BME280;6778;48.136;11.386;2023-02-11T01:31:39;97171.06;;;-1.44;82.22
13414;BME280;6778;48.136;11.386;2023-02-11T01:34:08;97168.34;;;-1.55;82.47
13414;BME280;6778;48.136;11.386;2023-02-11T01:36:39;97169.47;;;-1.59;83.02
13414;BME280;6778;48.136;11.386;2023-02-11T01:39:12;97170.06;;;-1.56;82.83
13414;BME280;6778;48.136;11.386;2023-02-11T01:41:42;97167.59;;;-1.57;82.74
13414;BME280;6778;48.136;11.386;2023-02-11T01:44:27;97173.78;;;-1.60;82.81
13414;BME280;6778;48.136;11.386;2023-02-11T01:46:59;97182.41;;;-1.61;82.70
13414;BME280;6778;48.136;11.386;2023-02-11T01:49:32;97177.44;;;-1.64;82.73
13414;BME280;6778;48.136;11.386;2023-02-11T01:52:09;97166.34;;;-1.65;82.71
13414;BME280;6778;48.136;11.386;2023-02-11T01:54:48;97162.69;;;-1.60;82.37
13414;BME280;6778;48.136;11.386;2023-02-11T01:57:35;97165.78;;;-1.55;81.85
13414;BME280;6778;48.136;11.386;2023-02-11T02:00:13;97163.28;;;-1.57;81.85
13414;BME280;6778;48.136;11.386;2023-02-11T02:02:53;97170.00;;;-1.54;81.40
13414;BME280;6778;48.136;11.386;2023-02-11T02:05:32;97168.53;;;-1.58;81.12
13414;BME280;6778;48.136;11.386;2023-02-11T02:08:09;97159.19;;;-1.59;80.85
13414;BME280;6778;48.136;11.386;2023-02-11T02:10:45;97156.63;;;-1.59;80.78
13414;BME280;6778;48.136;11.386;2023-02-11T02:13:15;97157.34;;;-1.57;80.19
13414;BME280;6778;48.136;11.386;2023-02-11T02:15:50;97154.88;;;-1.59;80.03
13414;BME280;6778;48.136;11.386;2023-02-11T02:18:34;97154.03;;;-1.59;80.23
13414;BME280;6778;48.136;11.386;2023-02-11T02:21:39;97143.97;;;-1.62;80.16
13414;BME280;6778;48.136;11.386;2023-02-11T02:27:49;97141.69;;;-1.67;80.07
13414;BME280;6778;48.136;11.386;2023-02-11T02:30:47;97126.38;;;-1.69;80.31
13414;BME280;6778;48.136;11.386;2023-02-11T02:33:41;97129.13;;;-1.72;80.21
13414;BME280;6778;48.136;11.386;2023-02-11T02:36:20;97119.56;;;-1.70;79.88
13414;BME280;6778;48.136;11.386;2023-02-11T02:38:58;97118.84;;;-1.72;79.76
13414;BME280;6778;48.136;11.386;2023-02-11T02:41:32;97114.53;;;-1.71;79.55
13414;BME280;6778;48.136;11.386;2023-02-11T02:44:03;97110.31;;;-1.72;79.12
13414;BME280;6778;48.136;11.386;2023-02-11T02:46:35;97111.34;;;-1.75;79.32
13414;BME280;6778;48.136;11.386;2023-02-11T02:49:11;97109.78;;;-1.77;79.12
13414;BME280;6778;48.136;11.386;2023-02-11T02:51:56;97110.81;;;-1.80;78.96
13414;BME280;6778;48.136;11.386;2023-02-11T02:54:48;97103.81;;;-1.78;78.60
13414;BME280;6778;48.136;11.386;2023-02-11T02:57:30;97093.25;;;-1.73;78.43
13414;BME280;6778;48.136;11.386;2023-02-11T03:00:13;97095.00;;;-1.74;78.34
13414;BME280;6778;48.136;11.386;2023-02-11T03:03:04;97095.00;;;-1.74;78.25
13414;BME280;6778;48.136;11.386;2023-02-11T03:05:48;97085.66;;;-1.75;78.19
13414;BME280;6778;48.136;11.386;2023-02-11T03:08:26;97078.03;;;-1.76;78.20
13414;BME280;6778;48.136;11.386;2023-02-11T03:11:02;97071.06;;;-1.74;77.92
13414;BME280;6778;48.136;11.386;2023-02-11T03:13:35;97068.50;;;-1.74;77.55
13414;BME280;6778;48.136;11.386;2023-02-11T03:16:10;97076.81;;;-1.71;77.39
13414;BME280;6778;48.136;11.386;2023-02-11T03:18:48;97060.31;;;-1.67;77.06
13414;BME280;6778;48.136;11.386;2023-02-11T03:21:24;97060.41;;;-1.68;76.51
13414;BME280;6778;48.136;11.386;2023-02-11T03:23:59;97060.50;;;-1.70;76.53
13414;BME280;6778;48.136;11.386;2023-02-11T03:26:37;97066.03;;;-1.76;76.54
13414;BME280;6778;48.136;11.386;2023-02-11T03:29:16;97056.28;;;-1.71;76.54
13414;BME280;6778;48.136;11.386;2023-02-11T03:31:56;97041.63;;;-1.69;76.48
13414;BME280;6778;48.136;11.386;2023-02-11T03:34:35;97055.06;;;-1.65;76.24
13414;BME280;6778;48.136;11.386;2023-02-11T03:37:15;97063.91;;;-1.69;76.07
13414;BME280;6778;48.136;11.386;2023-02-11T03:39:51;97063.91;;;-1.69;76.23
13414;BME280;6778;48.136;11.386;2023-02-11T03:42:30;97057.84;;;-1.68;76.30
13414;BME280;6778;48.136;11.386;2023-02-11T03:45:06;97064.41;;;-1.64;76.04
13414;BME280;6778;48.136;11.386;2023-02-11T03:47:40;97068.44;;;-1.60;75.71
13414;BME280;6778;48.136;11.386;2023-02-11T03:50:15;97065.78;;;-1.58;75.43
13414;BME280;6778;48.136;11.386;2023-02-11T03:52:50;97078.91;;;-1.63;75.54
13414;BME280;6778;48.136;11.386;2023-02-11T03:55:22;97083.31;;;-1.65;75.52
13414;BME280;6778;48.136;11.386;2023-02-11T03:57:54;97075.09;;;-1.70;75.55
13414;BME280;6778;48.136;11.386;2023-02-11T04:00:29;97079.41;;;-1.71;75.84
13414;BME280;6778;48.136;11.386;2023-02-11T04:02:59;97079.34;;;-1.83;76.44
13414;BME280;6778;48.136;11.386;2023-02-11T04:05:29;97073.38;;;-1.84;76.43
13414;BME280;6778;48.136;11.386;2023-02-11T04:08:03;97065.06;;;-1.87;76.38
13414;BME280;6778;48.136;11.386;2023-02-11T04:10:34;97070.63;;;-1.81;76.20
13414;BME280;6778;48.136;11.386;2023-02-11T04:13:04;97069.00;;;-1.82;75.96
13414;BME280;6778;48.136;11.386;2023-02-11T04:15:34;97076.31;;;-1.76;75.81
13414;BME280;6778;48.136;11.386;2023-02-11T04:18:04;97076.38;;;-1.77;75.65
13414;BME280;6778;48.136;11.386;2023-02-11T04:20:34;97075.13;;;-1.84;75.68
13414;BME280;6778;48.136;11.386;2023-02-11T04:23:07;97083.47;;;-1.81;75.83
13414;BME280;6778;48.136;11.386;2023-02-11T04:25:42;97086.44;;;-1.87;75.91
13414;BME280;6778;48.136;11.386;2023-02-11T04:28:12;97084.97;;;-1.91;76.11
13414;BME280;6778;48.136;11.386;2023-02-11T04:30:43;97085.88;;;-1.92;76.32
13414;BME280;6778;48.136;11.386;2023-02-11T04:33:13;97095.66;;;-1.84;76.15
13414;BME280;6778;48.136;11.386;2023-02-11T04:35:44;97099.38;;;-1.88;75.90
13414;BME280;6778;48.136;11.386;2023-02-11T04:38:17;97099.81;;;-1.82;75.91
13414;BME280;6778;48.136;11.386;2023-02-11T04:40:50;97113.03;;;-1.88;76.35
13414;BME280;6778;48.136;11.386;2023-02-11T04:43:20;97112.38;;;-1.92;76.47
13414;BME280;6778;48.136;11.386;2023-02-11T04:45:50;97125.13;;;-1.90;76.48
13414;BME280;6778;48.136;11.386;2023-02-11T04:48:20;97125.50;;;-1.82;76.03
13414;BME280;6778;48.136;11.386;2023-02-11T04:50:50;97118.25;;;-1.89;76.42
13414;BME280;6778;48.136;11.386;2023-02-11T04:53:23;97123.91;;;-1.84;76.38
13414;BME280;6778;48.136;11.386;2023-02-11T04:55:54;97130.53;;;-1.80;76.08
13414;BME280;6778;48.136;11.386;2023-02-11T04:58:26;97127.88;;;-1.93;76.50
13414;BME280;6778;48.136;11.386;2023-02-11T05:01:04;97126.78;;;-1.89;76.34
13414;BME280;6778;48.136;11.386;2023-02-11T05:03:35;97126.63;;;-2.00;77.02
13414;BME280;6778;48.136;11.386;2023-02-11T05:06:08;97135.34;;;-2.03;76.96
13414;BME280;6778;48.136;11.386;2023-02-11T05:08:41;97130.19;;;-2.03;76.79
13414;BME280;6778;48.136;11.386;2023-02-11T05:11:15;97126.06;;;-2.05;76.74
13414;BME280;6778;48.136;11.386;2023-02-11T05:13:46;97127.91;;;-2.22;77.16
13414;BME280;6778;48.136;11.386;2023-02-11T05:16:19;97126.75;;;-2.30;77.90
13414;BME280;6778;48.136;11.386;2023-02-11T05:18:51;97130.19;;;-2.17;77.25
13414;BME280;6778;48.136;11.386;2023-02-11T05:21:21;97130.13;;;-2.15;77.00
13414;BME280;6778;48.136;11.386;2023-02-11T05:23:54;97124.81;;;-2.27;77.17
13414;BME280;6778;48.136;11.386;2023-02-11T05:26:24;97115.47;;;-2.56;78.44
13414;BME280;6778;48.136;11.386;2023-02-11T05:28:55;97120.75;;;-2.31;78.00
13414;BME280;6778;48.136;11.386;2023-02-11T05:31:25;97107.28;;;-2.20;77.81
13414;BME280;6778;48.136;11.386;2023-02-11T05:33:56;97104.44;;;-2.01;77.22
13414;BME280;6778;48.136;11.386;2023-02-11T05:36:25;97100.56;;;-1.94;77.25
13414;BME280;6778;48.136;11.386;2023-02-11T05:39:02;97112.66;;;-1.82;77.15
13414;BME280;6778;48.136;11.386;2023-02-11T05:41:32;97111.25;;;-1.73;77.04
13414;BME280;6778;48.136;11.386;2023-02-11T05:44:02;97103.06;;;-1.66;76.38
13414;BME280;6778;48.136;11.386;2023-02-11T05:46:32;97104.22;;;-1.57;75.58
13414;BME280;6778;48.136;11.386;2023-02-11T05:49:03;97097.69;;;-1.48;74.74
13414;BME280;6778;48.136;11.386;2023-02-11T05:51:35;97099.00;;;-1.43;74.58
13414;BME280;6778;48.136;11.386;2023-02-11T05:54:08;97093.81;;;-1.41;74.25
13414;BME280;6778;48.136;11.386;2023-02-11T05:56:40;97086.41;;;-1.33;74.11
13414;BME280;6778;48.136;11.386;2023-02-11T05:59:12;97078.31;;;-1.27;73.53
13414;BME280;6778;48.136;11.386;2023-02-11T06:01:43;97075.03;;;-1.16;73.29
13414;BME280;6778;48.136;11.386;2023-02-11T06:04:19;97059.84;;;-1.06;72.62
13414;BME280;6778;48.136;11.386;2023-02-11T06:06:49;97061.25;;;-1.02;72.51
13414;BME280;6778;48.136;11.386;2023-02-11T06:09:23;97074.13;;;-1.02;72.32
13414;BME280;6778;48.136;11.386;2023-02-11T06:11:53;97077.00;;;-1.07;72.48
13414;BME280;6778;48.136;11.386;2023-02-11T06:14:24;97066.94;;;-0.97;72.61
13414;BME280;6778;48.136;11.386;2023-02-11T06:16:54;97074.25;;;-0.91;72.30
13414;BME280;6778;48.136;11.386;2023-02-11T06:19:24;97079.16;;;-0.88;72.34
13414;BME280;6778;48.136;11.386;2023-02-11T06:21:58;97078.69;;;-0.93;72.17
13414;BME280;6778;48.136;11.386;2023-02-11T06:24:31;97089.38;;;-0.87;72.06
13414;BME280;6778;48.136;11.386;2023-02-11T06:27:23;97078.34;;;-0.76;71.66
13414;BME280;6778;48.136;11.386;2023-02-11T06:29:56;97081.44;;;-0.71;71.26
13414;BME280;6778;48.136;11.386;2023-02-11T06:32:30;97080.84;;;-0.74;71.39
13414;BME280;6778;48.136;11.386;2023-02-11T06:35:11;97084.66;;;-0.80;71.79
13414;BME280;6778;48.136;11.386;2023-02-11T06:37:42;97085.78;;;-0.71;71.79
13414;BME280;6778;48.136;11.386;2023-02-11T06:40:17;97082.28;;;-0.70;71.58
13414;BME280;6778;48.136;11.386;2023-02-11T06:42:48;97083.31;;;-0.60;71.25
13414;BME280;6778;48.136;11.386;2023-02-11T06:45:18;97085.06;;;-0.61;71.31
13414;BME280;6778;48.136;11.386;2023-02-11T06:47:50;97090.22;;;-0.61;71.30
13414;BME280;6778;48.136;11.386;2023-02-11T06:50:22;97095.03;;;-0.56;71.12
13414;BME280;6778;48.136;11.386;2023-02-11T06:52:54;97095.25;;;-0.46;70.65
13414;BME280;6778;48.136;11.386;2023-02-11T06:55:28;97085.97;;;-0.36;70.27
13414;BME280;6778;48.136;11.386;2023-02-11T06:57:58;97084.50;;;-0.28;69.92
13414;BME280;6778;48.136;11.386;2023-02-11T07:00:28;97077.50;;;-0.25;69.56
13414;BME280;6778;48.136;11.386;2023-02-11T07:02:58;97085.34;;;-0.27;69.96
13414;BME280;6778;48.136;11.386;2023-02-11T07:05:29;97099.44;;;-0.20;70.03
13414;BME280;6778;48.136;11.386;2023-02-11T07:08:01;97099.63;;;-0.10;69.34
13414;BME280;6778;48.136;11.386;2023-02-11T07:10:34;97087.44;;;-0.08;69.08
13414;BME280;6778;48.136;11.386;2023-02-11T07:13:04;97094.97;;;-0.05;68.86
13414;BME280;6778;48.136;11.386;2023-02-11T07:15:35;97105.47;;;-0.08;69.14
13414;BME280;6778;48.136;11.386;2023-02-11T07:18:06;97112.28;;;-0.07;69.06
13414;BME280;6778;48.136;11.386;2023-02-11T07:20:40;97112.91;;;-0.04;69.09
13414;BME280;6778;48.136;11.386;2023-02-11T07:23:10;97102.06;;;0.04;68.97
13414;BME280;6778;48.136;11.386;2023-02-11T07:25:43;97113.47;;;0.13;69.13
13414;BME280;6778;48.136;11.386;2023-02-11T07:28:13;97102.31;;;0.25;69.54
13414;BME280;6778;48.136;11.386;2023-02-11T07:30:43;97088.78;;;0.34;70.15
13414;BME280;6778;48.136;11.386;2023-02-11T07:33:15;97086.69;;;0.39;69.95
13414;BME280;6778;48.136;11.386;2023-02-11T07:35:45;97076.06;;;0.44;68.91
13414;BME280;6778;48.136;11.386;2023-02-11T07:38:16;97076.31;;;0.52;68.95
13414;BME280;6778;48.136;11.386;2023-02-11T07:40:48;97079.97;;;0.49;68.55
13414;BME280;6778;48.136;11.386;2023-02-11T07:43:18;97068.28;;;0.57;67.95
13414;BME280;6778;48.136;11.386;2023-02-11T07:45:48;97077.19;;;0.64;67.52
13414;BME280;6778;48.136;11.386;2023-02-11T07:48:19;97069.78;;;0.83;68.63
13414;BME280;6778;48.136;11.386;2023-02-11T07:50:49;97081.41;;;0.89;68.37
13414;BME280;6778;48.136;11.386;2023-02-11T07:53:19;97081.91;;;1.05;68.18
13414;BME280;6778;48.136;11.386;2023-02-11T07:55:52;97081.41;;;1.00;67.52
13414;BME280;6778;48.136;11.386;2023-02-11T07:58:22;97080.75;;;1.09;67.32
13414;BME280;6778;48.136;11.386;2023-02-11T08:00:52;97080.53;;;1.23;67.26
13414;BME280;6778;48.136;11.386;2023-02-11T08:03:22;97074.25;;;1.50;66.74
13414;BME280;6778;48.136;11.386;2023-02-11T08:05:52;97058.38;;;1.54;66.12
13414;BME280;6778;48.136;11.386;2023-02-11T08:08:25;97053.34;;;1.64;64.65
13414;BME280;6778;48.136;11.386;2023-02-11T08:11:06;97043.72;;;1.66;63.70
13414;BME280;6778;48.136;11.386;2023-02-11T08:13:37;97053.06;;;1.89;63.34
13414;BME280;6778;48.136;11.386;2023-02-11T08:16:08;97055.50;;;2.25;62.87
13414;BME280;6778;48.136;11.386;2023-02-11T08:18:39;97056.31;;;2.57;62.59
13414;BME280;6778;48.136;11.386;2023-02-11T08:21:09;97061.66;;;2.97;61.56
13414;BME280;6778;48.136;11.386;2023-02-11T08:23:41;97057.84;;;3.43;59.80
13414;BME280;6778;48.136;11.386;2023-02-11T08:26:16;97060.25;;;3.56;59.59
13414;BME280;6778;48.136;11.386;2023-02-11T08:28:48;97051.00;;;3.63;58.41
13414;BME280;6778;48.136;11.386;2023-02-11T08:31:20;97059.97;;;3.90;58.21
13414;BME280;6778;48.136;11.386;2023-02-11T08:33:52;97058.41;;;3.77;57.97
13414;BME280;6778;48.136;11.386;2023-02-11T08:36:25;97061.22;;;4.05;57.86
13414;BME280;6778;48.136;11.386;2023-02-11T08:38:57;97064.75;;;3.94;57.42
13414;BME280;6778;48.136;11.386;2023-02-11T08:41:49;97060.09;;;3.88;57.59
13414;BME280;6778;48.136;11.386;2023-02-11T08:44:21;97065.13;;;4.20;57.36
13414;BME280;6778;48.136;11.386;2023-02-11T08:46:51;97076.69;;;4.26;57.22
13414;BME280;6778;48.136;11.386;2023-02-11T08:49:22;97075.00;;;4.55;57.18
13414;BME280;6778;48.136;11.386;2023-02-11T08:51:52;97073.09;;;4.96;56.30
13414;BME280;6778;48.136;11.386;2023-02-11T08:54:25;97058.38;;;5.43;54.87
13414;BME280;6778;48.136;11.386;2023-02-11T08:56:59;97061.53;;;5.37;53.72
13414;BME280;6778;48.136;11.386;2023-02-11T08:59:30;97068.50;;;5.84;53.44
13414;BME280;6778;48.136;11.386;2023-02-11T09:02:00;97051.56;;;5.42;52.82
13414;BME280;6778;48.136;11.386;2023-02-11T09:04:31;97045.28;;;5.26;53.01
13414;BME280;6778;48.136;11.386;2023-02-11T09:07:01;97042.03;;;5.14;53.48
13414;BME280;6778;48.136;11.386;2023-02-11T09:09:32;97040.56;;;4.92;53.45
13414;BME280;6778;48.136;11.386;2023-02-11T09:12:05;97042.22;;;4.83;53.23
13414;BME280;6778;48.136;11.386;2023-02-11T09:14:35;97046.44;;;4.84;53.21
13414;BME280;6778;48.136;11.386;2023-02-11T09:17:07;97042.47;;;4.80;52.98
13414;BME280;6778;48.136;11.386;2023-02-11T09:19:37;97047.81;;;4.88;53.28
13414;BME280;6778;48.136;11.386;2023-02-11T09:22:07;97048.63;;;4.89;53.03
13414;BME280;6778;48.136;11.386;2023-02-11T09:24:37;97040.28;;;5.05;53.13
13414;BME280;6778;48.136;11.386;2023-02-11T09:27:11;97038.81;;;4.83;52.97
13414;BME280;6778;48.136;11.386;2023-02-11T09:29:41;97042.19;;;4.74;53.17
13414;BME280;6778;48.136;11.386;2023-02-11T09:32:11;97037.97;;;4.73;53.16
13414;BME280;6778;48.136;11.386;2023-02-11T09:34:41;97044.78;;;4.74;53.25
13414;BME280;6778;48.136;11.386;2023-02-11T09:37:11;97060.94;;;4.68;52.82
13414;BME280;6778;48.136;11.386;2023-02-11T09:39:42;97051.78;;;4.83;52.11
13414;BME280;6778;48.136;11.386;2023-02-11T09:42:36;97065.91;;;5.84;50.47
13414;BME280;6778;48.136;11.386;2023-02-11T09:45:13;97078.97;;;6.29;49.19
13414;BME280;6778;48.136;11.386;2023-02-11T09:47:51;97069.22;;;7.38;46.72
13414;BME280;6778;48.136;11.386;2023-02-11T09:50:28;97062.88;;;12.40;37.83
13414;BME280;6778;48.136;11.386;2023-02-11T09:53:02;97054.94;;;13.97;34.16
13414;BME280;6778;48.136;11.386;2023-02-11T09:55:35;97055.09;;;9.57;40.21
13414;BME280;6778;48.136;11.386;2023-02-11T09:58:15;97050.91;;;8.32;43.11
13414;BME280;6778;48.136;11.386;2023-02-11T10:00:56;97052.25;;;7.94;43.75
13414;BME280;6778;48.136;11.386;2023-02-11T10:04:00;97040.31;;;7.91;44.86
13414;BME280;6778;48.136;11.386;2023-02-11T10:06:40;97039.31;;;7.84;44.55
13414;BME280;6778;48.136;11.386;2023-02-11T10:09:27;97038.34;;;7.51;45.35
13414;BME280;6778;48.136;11.386;2023-02-11T10:12:15;97014.81;;;7.43;46.20
13414;BME280;6778;48.136;11.386;2023-02-11T10:15:17;97024.19;;;7.28;46.12
13414;BME280;6778;48.136;11.386;2023-02-11T10:18:19;97010.44;;;7.18;46.06
13414;BME280;6778;48.136;11.386;2023-02-11T10:21:06;97009.38;;;7.28;46.73
13414;BME280;6778;48.136;11.386;2023-02-11T10:23:43;97015.00;;;7.42;45.58
13414;BME280;6778;48.136;11.386;2023-02-11T10:26:16;97017.44;;;7.43;45.01
13414;BME280;6778;48.136;11.386;2023-02-11T10:28:50;97018.25;;;7.44;45.14
13414;BME280;6778;48.136;11.386;2023-02-11T10:31:36;97021.81;;;7.69;44.15
13414;BME280;6778;48.136;11.386;2023-02-11T10:34:10;97023.59;;;7.68;44.37
13414;BME280;6778;48.136;11.386;2023-02-11T10:36:42;97022.16;;;7.74;43.66
13414;BME280;6778;48.136;11.386;2023-02-11T10:39:15;97016.13;;;7.73;43.94
13414;BME280;6778;48.136;11.386;2023-02-11T10:41:48;97016.34;;;7.88;43.75
13414;BME280;6778;48.136;11.386;2023-02-11T10:44:24;97022.50;;;8.13;42.60
13414;BME280;6778;48.136;11.386;2023-02-11T10:47:03;97016.72;;;7.93;43.11
13414;BME280;6778;48.136;11.386;2023-02-11T10:49:39;97021.78;;;8.03;42.03
13414;BME280;6778;48.136;11.386;2023-02-11T10:52:13;97016.91;;;8.91;41.15
13414;BME280;6778;48.136;11.386;2023-02-11T10:55:02;97014.94;;;8.60;41.77
13414;BME280;6778;48.136;11.386;2023-02-11T10:57:36;97016.78;;;8.26;42.94
13414;BME280;6778;48.136;11.386;2023-02-11T11:00:25;97014.97;;;7.68;43.04
13414;BME280;6778;48.136;11.386;2023-02-11T11:03:01;97019.25;;;7.85;43.48
13414;BME280;6778;48.136;11.386;2023-02-11T11:05:35;97011.13;;;7.80;43.64
13414;BME280;6778;48.136;11.386;2023-02-11T11:08:07;97010.59;;;7.76;43.26
13414;BME280;6778;48.136;11.386;2023-02-11T11:10:41;97004.97;;;7.55;43.37
13414;BME280;6778;48.136;11.386;2023-02-11T11:13:25;97006.81;;;7.36;44.02
13414;BME280;6778;48.136;11.386;2023-02-11T11:16:17;96997.69;;;7.32;43.95
13414;BME280;6778;48.136;11.386;2023-02-11T11:18:52;96994.50;;;7.21;44.41
13414;BME280;6778;48.136;11.386;2023-02-11T11:21:25;97000.84;;;7.18;44.33
13414;BME280;6778;48.136;11.386;2023-02-11T11:23:58;96999.41;;;6.98;43.68
13414;BME280;6778;48.136;11.386;2023-02-11T11:26:40;96987.84;;;7.00;44.22
13414;BME280;6778;48.136;11.386;2023-02-11T11:29:16;96988.34;;;7.04;43.99
13414;BME280;6778;48.136;11.386;2023-02-11T11:31:52;96994.66;;;6.75;44.71
13414;BME280;6778;48.136;11.386;2023-02-11T11:34:30;96975.06;;;6.89;44.61
13414;BME280;6778;48.136;11.386;2023-02-11T11:37:10;96974.88;;;7.08;44.24
13414;BME280;6778;48.136;11.386;2023-02-11T11:39:41;96970.41;;;7.19;43.76
13414;BME280;6778;48.136;11.386;2023-02-11T11:42:24;96959.28;;;7.43;43.43
13414;BME280;6778;48.136;11.386;2023-02-11T11:44:57;96967.47;;;7.56;43.16
13414;BME280;6778;48.136;11.386;2023-02-11T11:47:33;96983.56;;;7.51;43.59
13414;BME280;6778;48.136;11.386;2023-02-11T11:50:24;96980.22;;;7.59;43.62
13414;BME280;6778;48.136;11.386;2023-02-11T11:53:00;96983.56;;;7.85;43.63
13414;BME280;6778;48.136;11.386;2023-02-11T11:55:38;96984.03;;;7.73;43.34
13414;BME280;6778;48.136;11.386;2023-02-11T11:58:15;96985.63;;;7.65;42.78
13414;BME280;6778;48.136;11.386;2023-02-11T12:01:01;96996.50;;;7.61;43.05
13414;BME280;6778;48.136;11.386;2023-02-11T12:06:42;96980.53;;;7.64;44.27
13414;BME280;6778;48.136;11.386;2023-02-11T12:09:25;96979.69;;;7.55;44.07
13414;BME280;6778;48.136;11.386;2023-02-11T12:12:15;96968.41;;;7.81;44.69
13414;BME280;6778;48.136;11.386;2023-02-11T12:15:01;96967.78;;;7.95;44.54
13414;BME280;6778;48.136;11.386;2023-02-11T12:17:51;96958.81;;;7.98;44.04
13414;BME280;6778;48.136;11.386;2023-02-11T12:20:35;96962.13;;;8.24;43.81
13414;BME280;6778;48.136;11.386;2023-02-11T12:23:31;96967.06;;;8.27;42.84
13414;BME280;6778;48.136;11.386;2023-02-11T12:26:13;96964.59;;;8.26;42.52
13414;BME280;6778;48.136;11.386;2023-02-11T12:28:59;96958.72;;;8.32;42.01
13414;BME280;6778;48.136;11.386;2023-02-11T12:31:49;96958.06;;;8.21;41.64
13414;BME280;6778;48.136;11.386;2023-02-11T12:34:37;96960.97;;;8.10;41.68
13414;BME280;6778;48.136;11.386;2023-02-11T12:37:21;96957.25;;;8.13;41.92
13414;BME280;6778;48.136;11.386;2023-02-11T12:40:08;96958.25;;;8.20;41.81
13414;BME280;6778;48.136;11.386;2023-02-11T12:42:59;96944.19;;;8.13;42.15
13414;BME280;6778;48.136;11.386;2023-02-11T12:46:01;96936.03;;;8.24;41.52
13414;BME280;6778;48.136;11.386;2023-02-11T12:48:48;96927.94;;;8.35;41.29
13414;BME280;6778;48.136;11.386;2023-02-11T12:51:38;96923.22;;;8.47;41.12
13414;BME280;6778;48.136;11.386;2023-02-11T12:54:24;96928.75;;;8.68;42.09
13414;BME280;6778;48.136;11.386;2023-02-11T12:57:05;96932.81;;;8.71;40.82
13414;BME280;6778;48.136;11.386;2023-02-11T12:59:44;96928.41;;;8.63;40.95
13414;BME280;6778;48.136;11.386;2023-02-11T13:02:26;96936.56;;;8.44;41.12
13414;BME280;6778;48.136;11.386;2023-02-11T13:05:03;96924.97;;;8.38;41.18
13414;BME280;6778;48.136;11.386;2023-02-11T13:07:41;96915.00;;;8.34;40.93
13414;BME280;6778;48.136;11.386;2023-02-11T13:10:26;96920.53;;;8.31;40.94
13414;BME280;6778;48.136;11.386;2023-02-11T13:13:09;96920.72;;;8.13;41.28
13414;BME280;6778;48.136;11.386;2023-02-11T13:15:50;96920.22;;;8.34;41.44
13414;BME280;6778;48.136;11.386;2023-02-11T13:18:38;96913.41;;;8.49;40.75
13414;BME280;6778;48.136;11.386;2023-02-11T13:21:35;96904.09;;;8.55;41.16
13414;BME280;6778;48.136;11.386;2023-02-11T13:24:19;96906.38;;;8.50;40.52
13414;BME280;6778;48.136;11.386;2023-02-11T13:26:59;96892.34;;;8.59;40.41
13414;BME280;6778;48.136;11.386;2023-02-11T13:29:48;96892.50;;;8.65;39.99
13414;BME280;6778;48.136;11.386;2023-02-11T13:32:24;96892.19;;;8.68;39.88
13414;BME280;6778;48.136;11.386;2023-02-11T13:34:59;96887.25;;;8.82;39.64
13414;BME280;6778;48.136;11.386;2023-02-11T13:37:35;96884.00;;;8.88;39.13
13414;BME280;6778;48.136;11.386;2023-02-11T13:40:21;96883.16;;;8.95;39.87
13414;BME280;6778;48.136;11.386;2023-02-11T13:42:54;96882.31;;;9.03;38.89
13414;BME280;6778;48.136;11.386;2023-02-11T13:45:33;96897.28;;;9.17;39.50
13414;BME280;6778;48.136;11.386;2023-02-11T13:48:16;96897.44;;;9.24;38.98
13414;BME280;6778;48.136;11.386;2023-02-11T13:50:52;96897.75;;;9.21;39.81
13414;BME280;6778;48.136;11.386;2023-02-11T13:53:23;96891.06;;;9.18;40.09
13414;BME280;6778;48.136;11.386;2023-02-11T13:56:11;96887.84;;;9.08;39.62